Terminal Aerodrome Forecast
Issued by NWS

Home | Current Version | Previous Version | Text Only | Print | Product List | Glossary Off
Versions: 1 2 3 4 5 6 7 8 9 10 11 12 13 14 15 16 17 18

000
FTUS43 KTOP 221300 AAA
TAFFOE
TAF AMD
KFOE 221354Z 2214/2312 17010KT 5SM -RA BR OVC005
      TEMPO 2214/2218 2SM RA BR SCT005 OVC009
     FM222000 28014KT P6SM SCT018 OVC035=

USA.gov is the U.S. government's official web portal to all federal, state and local government web resources and services.